Time;durP1;ratioP1;P1;durP2;ratioP2;P2;SDS_P1;SDS_P2;PMS_P1;PMS_P2;Temp;Humidity;BMP_temperature;BMP_pressure;BME280_temperature;BME280_humidity;BME280_pressure;Samples;Min_cycle;Max_cycle;Signal;HPM_P1;HPM_P2
2022/11/12 00:02:24;;;;;;;12.80;6.45;;;;;;;8.00;100.00;101478.13;12204409;19;20059;-81
2022/11/12 00:06:45;;;;;;;10.93;5.18;;;;;;;8.03;100.00;101479.66;12225760;19;20023;-82
2022/11/12 00:11:06;;;;;;;20.15;6.00;;;;;;;8.00;100.00;101472.63;12226213;19;20755;-82
2022/11/12 00:15:26;;;;;;;16.17;5.60;;;;;;;7.97;100.00;101473.03;12205308;19;20030;-82
2022/11/12 00:19:47;;;;;;;10.10;4.82;;;;;;;7.98;100.00;101463.75;12227598;19;20012;-82
2022/11/12 00:24:07;;;;;;;19.55;5.80;;;;;;;7.98;100.00;101464.63;12200764;19;20085;-82
2022/11/12 00:28:27;;;;;;;13.95;6.03;;;;;;;7.98;100.00;101458.28;12224287;19;20449;-82
2022/11/12 00:32:54;;;;;;;13.27;6.15;;;;;;;7.92;100.00;101450.81;12199469;19;20039;-82
2022/11/12 00:37:15;;;;;;;10.82;6.35;;;;;;;7.91;100.00;101454.56;12221480;19;20666;-82
2022/11/12 00:41:35;;;;;;;27.85;7.68;;;;;;;7.93;100.00;101461.59;12196967;19;20024;-82
2022/11/12 00:45:55;;;;;;;18.20;5.95;;;;;;;7.84;100.00;101456.41;12217052;19;20034;-81
2022/11/12 00:50:17;;;;;;;11.35;5.35;;;;;;;7.87;100.00;101456.88;12220694;19;20082;-82
2022/11/12 00:54:37;;;;;;;20.40;7.28;;;;;;;7.85;100.00;101453.47;12194308;19;20027;-81
2022/11/12 00:58:58;;;;;;;13.20;5.55;;;;;;;7.91;100.00;101457.31;12219056;19;20013;-82
2022/11/12 01:03:17;;;;;;;22.90;6.78;;;;;;;7.90;100.00;101461.13;12195337;19;20016;-81
2022/11/12 01:07:38;;;;;;;24.40;7.90;;;;;;;7.73;100.00;101471.44;12218542;19;20019;-82
2022/11/12 01:11:58;;;;;;;13.15;6.45;;;;;;;7.67;100.00;101475.81;12198228;19;20081;-82
2022/11/12 01:16:20;;;;;;;15.88;6.70;;;;;;;7.63;100.00;101473.66;12223608;19;20112;-82
2022/11/12 01:20:40;;;;;;;16.75;7.15;;;;;;;7.63;100.00;101470.91;12194025;19;20043;-82
2022/11/12 01:25:01;;;;;;;15.13;6.95;;;;;;;7.61;100.00;101462.84;12216375;19;20374;-81
2022/11/12 01:29:21;;;;;;;20.05;7.78;;;;;;;7.57;100.00;101463.44;12196754;19;20677;-82
2022/11/12 01:33:44;;;;;;;25.15;7.72;;;;;;;7.51;100.00;101463.13;12211486;19;20013;-82
2022/11/12 01:38:03;;;;;;;16.92;7.75;;;;;;;7.54;100.00;101462.75;12232966;19;20031;-82
2022/11/12 01:42:30;;;;;;;106.55;15.45;;;;;;;7.59;100.00;101464.94;12242094;19;20045;-81
2022/11/12 01:47:23;;;;;;;50.47;11.27;;;;;;;7.49;100.00;101461.63;12256178;19;20017;-82
2022/11/12 01:51:48;;;;;;;77.65;13.00;;;;;;;7.44;100.00;101455.88;12210571;19;20036;-82
2022/11/12 01:56:09;;;;;;;18.38;7.57;;;;;;;7.41;100.00;101464.47;12228375;19;20025;-82
2022/11/12 02:00:29;;;;;;;12.65;6.60;;;;;;;7.44;100.00;101455.88;12210187;19;20018;-82
2022/11/12 02:04:50;;;;;;;17.60;6.78;;;;;;;7.48;100.00;101465.41;12225216;19;20065;-82
2022/11/12 02:09:12;;;;;;;21.17;7.00;;;;;;;7.46;100.00;101454.63;12208061;19;20042;-82
2022/11/12 02:18:11;;;;;;;18.63;7.10;;;;;;;7.40;100.00;101457.28;12206050;19;20036;-82
2022/11/12 02:22:31;;;;;;;25.98;7.97;;;;;;;7.38;100.00;101460.22;12220202;19;20389;-81
2022/11/12 02:26:54;;;;;;;31.85;8.15;;;;;;;7.36;100.00;101459.56;12209144;19;20013;-82
2022/11/12 02:31:14;;;;;;;35.65;8.15;;;;;;;7.38;100.00;101446.50;12234335;19;20034;-83
2022/11/12 02:35:34;;;;;;;72.85;11.23;;;;;;;7.44;100.00;101455.88;12217448;19;20021;-82
2022/11/12 02:39:54;;;;;;;15.27;6.22;;;;;;;7.40;100.00;101451.78;12240527;19;20398;-81
2022/11/12 02:44:14;;;;;;;21.48;7.38;;;;;;;7.41;100.00;101445.28;12233933;19;20035;-82
2022/11/12 02:48:34;;;;;;;11.85;5.47;;;;;;;7.43;100.00;101449.50;12212015;19;20662;-81
2022/11/12 02:52:54;;;;;;;11.30;5.22;;;;;;;7.47;100.00;101442.63;12230488;19;20039;-81
2022/11/12 02:57:14;;;;;;;23.55;7.90;;;;;;;7.49;100.00;101440.53;12207907;19;20490;-82
2022/11/12 03:01:34;;;;;;;29.90;7.30;;;;;;;7.38;100.00;101451.16;12221784;19;20092;-82
2022/11/12 03:05:58;;;;;;;20.63;6.55;;;;;;;7.34;100.00;101438.84;12199853;19;20019;-81
2022/11/12 03:10:18;;;;;;;9.73;4.40;;;;;;;7.36;100.00;101442.25;12230534;19;20031;-82
2022/11/12 03:14:38;;;;;;;24.00;5.95;;;;;;;7.34;100.00;101444.31;12208232;19;20024;-82
2022/11/12 03:18:58;;;;;;;17.80;6.07;;;;;;;7.33;100.00;101445.38;12220034;19;20019;-82
2022/11/12 03:23:18;;;;;;;26.05;7.13;;;;;;;7.24;100.00;101439.13;12220550;19;20035;-82
2022/11/12 03:27:39;;;;;;;20.55;6.28;;;;;;;7.21;100.00;101429.38;12203801;19;20023;-82
2022/11/12 03:31:59;;;;;;;18.73;6.45;;;;;;;7.24;100.00;101430.91;12218516;19;20021;-82
2022/11/12 03:36:19;;;;;;;14.20;5.07;;;;;;;7.28;100.00;101419.34;12193249;19;20017;-82
2022/11/12 03:55:25;;;;;;;19.58;5.82;;;;;;;7.19;100.00;101417.75;12024309;19;2004531;-82
2022/11/12 03:59:45;;;;;;;11.68;4.32;;;;;;;7.19;100.00;101414.16;12205241;19;20021;-82
2022/11/12 04:04:05;;;;;;;12.55;3.92;;;;;;;7.26;100.00;101421.44;12222182;19;20803;-81
2022/11/12 04:08:35;;;;;;;8.43;5.10;;;;;;;7.30;100.00;101414.53;12215157;19;20031;-82
2022/11/12 04:22:12;;;;;;;4.38;2.67;;;;;;;7.33;100.00;101431.66;12237102;19;20035;-82
2022/11/12 04:26:32;;;;;;;4.25;2.55;;;;;;;7.33;100.00;101437.16;12214525;19;20013;-82
2022/11/12 04:30:52;;;;;;;4.25;2.42;;;;;;;7.28;100.00;101426.72;12230166;19;20483;-82
2022/11/12 04:35:12;;;;;;;8.77;2.53;;;;;;;7.17;100.00;101422.59;12232722;19;20034;-82
2022/11/12 04:39:32;;;;;;;3.72;2.05;;;;;;;7.04;100.00;101416.88;12213489;19;20038;-82
2022/11/12 04:48:32;;;;;;;5.75;2.65;;;;;;;6.92;100.00;101413.75;12204816;19;20018;-82
2022/11/12 04:52:52;;;;;;;6.90;2.78;;;;;;;6.81;100.00;101423.28;12225889;19;20034;-81
2022/11/12 04:57:12;;;;;;;5.38;2.42;;;;;;;6.72;100.00;101416.19;12204117;19;20034;-82
2022/11/12 05:01:32;;;;;;;5.25;2.70;;;;;;;6.72;100.00;101421.66;12221669;19;20027;-82
2022/11/12 05:05:52;;;;;;;3.45;2.10;;;;;;;6.67;100.00;101421.38;12193950;19;20017;-82
2022/11/12 05:10:12;;;;;;;5.68;1.92;;;;;;;6.56;100.00;101419.06;12221666;19;20019;-82
2022/11/12 05:14:33;;;;;;;4.53;2.42;;;;;;;6.48;100.00;101421.84;12198052;19;20017;-81
2022/11/12 05:18:53;;;;;;;10.88;2.90;;;;;;;6.42;100.00;101430.81;12219966;19;20072;-82
2022/11/12 05:23:13;;;;;;;4.93;2.55;;;;;;;6.37;100.00;101424.00;12217368;19;20500;-81
2022/11/12 05:27:34;;;;;;;4.70;2.53;;;;;;;6.29;100.00;101424.06;12193723;19;20026;-82
2022/11/12 05:31:54;;;;;;;7.97;2.95;;;;;;;6.31;100.00;101427.47;12216452;19;20025;-82
2022/11/12 05:36:15;;;;;;;9.65;3.28;;;;;;;6.28;100.00;101430.56;12198198;19;20016;-82
2022/11/12 05:40:35;;;;;;;6.47;2.80;;;;;;;6.25;100.00;101433.69;12221003;19;20027;-81
2022/11/12 05:44:55;;;;;;;4.90;2.80;;;;;;;6.27;100.00;101434.31;12194169;19;20384;-82
2022/11/12 05:49:16;;;;;;;5.47;3.00;;;;;;;6.26;100.00;101432.63;12217037;19;20017;-82
2022/11/12 05:53:37;;;;;;;6.72;3.40;;;;;;;6.19;100.00;101433.53;12195589;19;20009;-82
2022/11/12 05:57:57;;;;;;;7.57;3.78;;;;;;;6.20;100.00;101440.72;12216840;19;20027;-81
2022/11/12 06:02:17;;;;;;;9.20;3.40;;;;;;;6.22;100.00;101434.03;12212878;19;20023;-82
2022/11/12 06:06:38;;;;;;;8.02;4.50;;;;;;;6.22;100.00;101439.53;12186370;19;20017;-81
2022/11/12 06:10:58;;;;;;;5.13;3.38;;;;;;;6.27;100.00;101439.81;12214562;19;20018;-81
2022/11/12 06:15:18;;;;;;;9.32;3.83;;;;;;;6.32;100.00;101452.97;12191893;19;20082;-80
2022/11/12 06:19:38;;;;;;;10.55;4.05;;;;;;;6.32;100.00;101452.97;12214852;19;20024;-81
2022/11/12 06:23:59;;;;;;;7.82;4.00;;;;;;;6.30;100.00;101453.13;12186142;19;20024;-80
2022/11/12 06:28:47;;;;;;;8.90;4.43;;;;;;;6.27;100.00;101447.16;12213332;19;20524;-80
2022/11/12 06:33:07;;;;;;;8.52;4.30;;;;;;;6.25;100.00;101455.59;12191122;19;20425;-80
2022/11/12 06:37:27;;;;;;;8.48;4.10;;;;;;;6.26;100.00;101451.81;12217629;19;20020;-80
2022/11/12 06:41:48;;;;;;;8.05;4.50;;;;;;;6.29;100.00;101459.66;12191300;19;20047;-81
2022/11/12 06:46:12;;;;;;;7.72;4.30;;;;;;;6.31;100.00;101454.84;12215378;19;20013;-80
2022/11/12 06:50:32;;;;;;;7.72;4.38;;;;;;;6.35;100.00;101452.59;12194770;19;20042;-80
2022/11/12 06:54:52;;;;;;;12.50;6.85;;;;;;;6.34;100.00;101449.00;12211175;19;20206;-80
2022/11/12 06:59:12;;;;;;;15.65;8.35;;;;;;;6.33;100.00;101447.28;12213158;19;20374;-81
2022/11/12 07:03:33;;;;;;;21.05;10.95;;;;;;;6.39;100.00;101454.81;12190642;19;20031;-80
2022/11/12 07:07:54;;;;;;;8.52;5.13;;;;;;;6.43;100.00;101452.53;12212057;19;20035;-81
2022/11/12 07:12:14;;;;;;;8.52;4.18;;;;;;;6.51;100.00;101459.81;12198007;19;20490;-81
2022/11/12 07:16:35;;;;;;;8.05;4.35;;;;;;;6.56;100.00;101451.94;12226731;19;20376;-80
2022/11/12 07:21:06;;;;;;;6.95;4.15;;;;;;;6.60;100.00;101458.72;12203208;19;20456;-79
2022/11/12 07:25:26;;;;;;;11.15;5.43;;;;;;;6.65;100.00;101448.09;12224027;19;20015;-81
2022/11/12 07:29:46;;;;;;;6.53;3.90;;;;;;;6.71;100.00;101457.44;12204630;19;20528;-80
2022/11/12 07:34:08;;;;;;;7.25;4.57;;;;;;;6.76;100.00;101464.09;12217703;19;20100;-80
2022/11/12 07:38:30;;;;;;;6.47;4.20;;;;;;;6.79;100.00;101460.97;12165426;19;20023;-81
2022/11/12 07:42:50;;;;;;;8.77;4.22;;;;;;;6.80;100.00;101462.66;12225667;19;20054;-80
2022/11/12 07:47:10;;;;;;;6.85;3.95;;;;;;;6.85;100.00;101462.13;12225274;19;20043;-81
2022/11/12 07:52:02;;;;;;;5.68;3.85;;;;;;;6.91;100.00;101457.81;12201304;19;20096;-81
2022/11/12 07:56:52;;;;;;;9.35;4.28;;;;;;;7.01;100.00;101455.63;12238946;19;20465;-81
2022/11/12 08:06:17;;;;;;;10.35;4.93;;;;;;;7.00;100.00;101457.53;12222800;19;20019;-80
2022/11/12 08:11:09;;;;;;;5.50;3.70;;;;;;;7.18;100.00;101473.63;12226843;19;20034;-80
2022/11/12 08:16:26;;;;;;;7.50;4.20;;;;;;;7.30;100.00;101469.38;12204449;19;20009;-80
2022/11/12 08:21:58;;;;;;;;;;;;;;;;;;;;;
2022/11/12 08:27:20;;;;;;;;;;;;;;;;;;;;;
2022/11/12 08:32:13;;;;;;;7.18;4.40;;;;;;;7.77;100.00;101467.31;12015285;19;2004456;-81
2022/11/12 08:36:42;;;;;;;7.05;4.50;;;;;;;7.86;100.00;101462.56;12207996;19;20016;-80
2022/11/12 08:41:47;;;;;;;8.63;4.13;;;;;;;7.92;100.00;101464.53;12211020;19;20041;-80
2022/11/12 08:46:13;;;;;;;7.90;4.82;;;;;;;7.90;100.00;101461.97;12246626;19;20009;-81
2022/11/12 08:50:38;;;;;;;7.18;3.85;;;;;;;7.84;100.00;101464.63;12203650;19;20013;-81
2022/11/12 08:55:20;;;;;;;6.63;3.88;;;;;;;7.83;100.00;101465.69;12230349;19;20013;-81
2022/11/12 08:59:41;;;;;;;7.05;4.32;;;;;;;7.88;100.00;101483.28;12209251;19;20039;-81
2022/11/12 09:04:04;;;;;;;5.88;4.05;;;;;;;7.91;100.00;101468.31;12224417;19;20027;-80
2022/11/12 09:08:36;;;;;;;6.82;4.35;;;;;;;7.97;100.00;101475.78;12242595;19;20022;-80
2022/11/12 09:12:56;;;;;;;8.18;4.60;;;;;;;8.11;100.00;101474.03;12243854;19;20009;-81
2022/11/12 09:17:17;;;;;;;6.15;4.32;;;;;;;8.18;100.00;101473.09;12237406;19;20065;-81
2022/11/12 09:21:38;;;;;;;6.50;3.88;;;;;;;8.23;100.00;101459.59;12206597;19;20067;-81
2022/11/12 09:25:58;;;;;;;7.10;4.47;;;;;;;8.43;100.00;101462.63;12230222;19;20367;-81
2022/11/12 09:30:19;;;;;;;7.93;5.38;;;;;;;8.39;100.00;101455.81;12208994;19;20014;-81
2022/11/12 09:34:39;;;;;;;9.48;4.93;;;;;;;8.40;100.00;101456.66;12227956;19;20031;-81
2022/11/12 09:38:59;;;;;;;7.00;4.30;;;;;;;8.47;100.00;101468.56;12208055;19;20418;-81
2022/11/12 09:43:22;;;;;;;6.57;4.72;;;;;;;8.57;100.00;101471.84;12225861;19;20035;-81
2022/11/12 09:47:48;;;;;;;6.10;4.30;;;;;;;8.67;100.00;101464.13;12207133;19;20020;-81
2022/11/12 09:52:15;;;;;;;8.13;5.03;;;;;;;8.67;100.00;101457.78;12221921;19;20076;-81
2022/11/12 09:56:36;;;;;;;7.50;5.20;;;;;;;8.75;100.00;101465.03;12204007;19;20013;-81
2022/11/12 10:01:02;;;;;;;6.68;4.45;;;;;;;8.82;100.00;101460.44;12224528;19;20677;-81
2022/11/12 10:05:48;;;;;;;6.72;4.65;;;;;;;8.87;100.00;101452.47;12225350;19;20345;-82
2022/11/12 10:10:13;;;;;;;7.60;4.43;;;;;;;9.04;100.00;101442.88;12123384;19;2004744;-81
2022/11/12 10:16:41;;;;;;;7.07;4.60;;;;;;;9.21;100.00;101448.06;12200933;19;20829;-81
2022/11/12 10:20:12;;;;;;;5.82;3.80;;;;;;;9.30;100.00;101447.69;12221716;19;20515;-81
2022/11/12 10:24:35;;;;;;;7.43;4.47;;;;;;;9.45;100.00;101438.47;12195626;19;20023;-81
2022/11/12 10:29:16;;;;;;;8.90;5.20;;;;;;;9.50;100.00;101436.81;12218419;19;20039;-81
2022/11/12 10:33:37;;;;;;;7.93;5.20;;;;;;;9.47;100.00;101439.97;12195069;19;20014;-80
2022/11/12 10:38:05;;;;;;;10.10;5.68;;;;;;;9.56;100.00;101436.00;12221724;19;20027;-81
2022/11/12 10:42:26;;;;;;;9.43;5.45;;;;;;;9.63;100.00;101435.19;12198028;19;20024;-81
2022/11/12 10:46:46;;;;;;;8.30;5.25;;;;;;;9.78;100.00;101433.13;12226894;19;20038;-81
2022/11/12 10:51:28;;;;;;;7.95;5.20;;;;;;;9.94;100.00;101427.28;12203137;19;20009;-80
2022/11/12 10:56:21;;;;;;;11.00;6.68;;;;;;;10.07;100.00;101420.97;12232829;19;20040;-81
2022/11/12 11:01:06;;;;;;;10.98;6.30;;;;;;;9.94;100.00;101427.28;12206063;19;20112;-81
2022/11/12 11:05:29;;;;;;;10.02;7.30;;;;;;;10.03;100.00;101420.53;12205423;19;20023;-81
2022/11/12 11:09:59;;;;;;;11.05;7.57;;;;;;;9.99;100.00;101424.78;12228835;19;20027;-81
2022/11/12 11:14:29;;;;;;;10.65;6.57;;;;;;;10.10;100.00;101420.56;12230670;19;20028;-81
2022/11/12 11:18:58;;;;;;;12.07;7.35;;;;;;;10.20;100.00;101409.13;12209112;19;20021;-81
2022/11/12 11:23:30;;;;;;;10.40;7.38;;;;;;;10.42;100.00;101407.09;12229286;19;20035;-81
2022/11/12 11:28:21;;;;;;;13.27;7.65;;;;;;;10.36;100.00;101403.28;12124041;19;2004380;-81
2022/11/12 11:33:14;;;;;;;13.32;7.55;;;;;;;10.57;100.00;101407.75;12192097;19;20606;-81
2022/11/12 11:37:50;;;;;;;14.27;7.70;;;;;;;10.62;100.00;101390.56;12228030;19;20035;-81
2022/11/12 11:42:37;;;;;;;9.47;5.37;;;;;;;10.78;100.00;101401.19;12208658;19;20513;-80
2022/11/12 11:47:39;;;;;;;11.70;7.28;;;;;;;10.99;100.00;101390.97;12231017;19;20292;-80
2022/11/12 11:52:37;;;;;;;10.98;7.47;;;;;;;11.05;100.00;101396.47;12122636;19;2004449;-82
2022/11/12 11:57:02;;;;;;;11.68;7.43;;;;;;;11.08;100.00;101382.25;12205012;19;20035;-80
2022/11/12 12:01:47;;;;;;;12.98;7.68;;;;;;;11.11;100.00;101379.06;12227310;19;20164;-81
2022/11/12 12:06:23;;;;;;;10.40;7.00;;;;;;;11.28;100.00;101367.59;12204056;19;20558;-81
2022/11/12 12:11:14;;;;;;;13.00;7.15;;;;;;;11.49;100.00;101355.41;12226762;19;20805;-81
2022/11/12 12:15:50;;;;;;;12.48;7.68;;;;;;;11.69;100.00;101364.47;12207354;19;20504;-81
2022/11/12 12:20:25;;;;;;;10.90;7.32;;;;;;;11.86;100.00;101351.00;12229306;19;20424;-80
2022/11/12 12:25:00;;;;;;;10.30;7.10;;;;;;;12.00;100.00;101346.25;12199759;19;20035;-81
2022/11/12 12:29:42;;;;;;;12.75;7.00;;;;;;;12.20;100.00;101349.75;12223418;19;20027;-80
2022/11/12 12:34:18;;;;;;;11.73;6.88;;;;;;;12.31;100.00;101339.88;12116661;19;2004445;-80
2022/11/12 12:39:02;;;;;;;9.65;6.88;;;;;;;12.36;100.00;101337.28;12201215;19;20870;-81
2022/11/12 12:43:33;;;;;;;11.15;7.25;;;;;;;12.31;100.00;101335.22;12218944;19;20050;-80
2022/11/12 12:47:56;;;;;;;10.02;6.80;;;;;;;12.28;100.00;101332.91;12192238;19;20446;-81
2022/11/12 12:52:16;;;;;;;11.75;7.63;;;;;;;12.29;100.00;101328.22;12219675;19;20486;-81
2022/11/12 12:56:44;;;;;;;11.52;7.57;;;;;;;12.34;100.00;101322.00;12186255;19;20018;-81
2022/11/12 13:01:26;;;;;;;10.07;6.97;;;;;;;12.35;100.00;101324.56;12218434;19;20017;-80
2022/11/12 13:06:05;;;;;;;10.82;7.40;;;;;;;12.37;100.00;101308.56;12199937;19;20017;-82
2022/11/12 13:10:47;;;;;;;12.85;7.57;;;;;;;12.44;100.00;101308.53;12219714;19;20059;-80
2022/11/12 13:15:14;;;;;;;9.93;7.13;;;;;;;12.43;100.00;101316.00;12199048;19;20023;-81
2022/11/12 13:19:36;;;;;;;14.45;7.35;;;;;;;12.47;100.00;101310.84;12219216;19;20468;-80
2022/11/12 13:24:11;;;;;;;10.48;6.82;;;;;;;12.54;100.00;101309.69;12198918;19;20031;-81
2022/11/12 13:28:31;;;;;;;10.77;7.22;;;;;;;12.47;100.00;101299.78;12217087;19;20032;-81
2022/11/12 13:32:51;;;;;;;12.18;7.10;;;;;;;12.48;100.00;101304.25;12196317;19;20439;-81
2022/11/12 13:37:19;;;;;;;13.60;7.68;;;;;;;12.49;100.00;101305.91;12219242;19;20024;-81
2022/11/12 13:46:32;;;;;;;11.45;7.20;;;;;;;12.23;100.00;101296.78;12223902;19;20031;-80
2022/11/12 13:50:57;;;;;;;12.52;8.30;;;;;;;12.07;100.00;101289.03;12202170;19;20160;-80
2022/11/12 13:55:20;;;;;;;13.43;8.45;;;;;;;12.11;100.00;101286.69;12214114;19;20033;-81
2022/11/12 13:59:40;;;;;;;12.23;7.88;;;;;;;12.07;100.00;101280.75;12195946;19;20035;-81
2022/11/12 14:04:00;;;;;;;16.20;9.07;;;;;;;12.00;100.00;101277.19;12220123;19;20598;-81
2022/11/12 14:08:38;;;;;;;13.68;8.95;;;;;;;11.94;100.00;101265.13;12212520;19;20504;-81
2022/11/12 14:13:07;;;;;;;14.00;9.25;;;;;;;11.82;100.00;101270.47;12236199;19;20001;-81
2022/11/12 14:17:42;;;;;;;14.57;8.93;;;;;;;11.70;100.00;101274.19;12243222;19;20022;-81
2022/11/12 14:22:20;;;;;;;14.60;9.02;;;;;;;11.46;100.00;101276.66;12128355;19;2004482;-81
2022/11/12 14:26:42;;;;;;;16.88;9.98;;;;;;;11.33;100.00;101265.66;12209953;19;20031;-81
2022/11/12 14:31:03;;;;;;;15.52;9.68;;;;;;;11.19;100.00;101264.88;12233003;19;20408;-81
2022/11/12 14:35:26;;;;;;;16.23;10.63;;;;;;;11.16;100.00;101262.56;12227349;19;20031;-81
2022/11/12 14:39:46;;;;;;;16.45;10.45;;;;;;;11.08;100.00;101260.03;12208283;19;20021;-81
2022/11/12 14:44:09;;;;;;;17.33;11.00;;;;;;;10.98;100.00;101259.66;12232641;19;20162;-82
2022/11/12 14:48:53;;;;;;;20.05;11.35;;;;;;;10.85;100.00;101260.53;12207066;19;20429;-81
2022/11/12 14:53:18;;;;;;;20.75;11.90;;;;;;;10.75;100.00;101263.75;12227448;19;20068;-81
2022/11/12 14:57:44;;;;;;;21.65;12.07;;;;;;;10.63;100.00;101259.94;12203333;19;20077;-81
2022/11/12 15:02:34;;;;;;;18.80;12.15;;;;;;;10.51;100.00;101258.91;12224891;19;20017;-81
2022/11/12 15:07:49;;;;;;;22.30;12.25;;;;;;;10.39;100.00;101261.47;12124754;19;2004454;-81
2022/11/12 15:12:19;;;;;;;24.60;13.63;;;;;;;10.26;100.00;101254.00;12206828;19;20005;-81
2022/11/12 15:16:42;;;;;;;21.13;12.25;;;;;;;10.13;100.00;101254.88;12241619;19;20094;-81
2022/11/12 15:21:06;;;;;;;23.37;13.17;;;;;;;10.12;100.00;101255.94;12214092;19;20123;-80
2022/11/12 15:25:29;;;;;;;23.70;13.18;;;;;;;10.12;100.00;101255.94;12238786;19;20031;-80
2022/11/12 15:30:27;;;;;;;24.35;13.38;;;;;;;10.08;100.00;101257.41;12257661;19;20006;-80
2022/11/12 15:34:48;;;;;;;24.40;12.77;;;;;;;9.95;100.00;101241.72;12268167;19;20017;-81
2022/11/12 15:39:13;;;;;;;25.63;13.00;;;;;;;9.94;100.00;101240.03;12224323;19;20014;-81
2022/11/12 15:43:41;;;;;;;27.02;14.00;;;;;;;9.91;100.00;101240.47;12244270;19;20022;-84
2022/11/12 15:48:01;;;;;;;29.20;14.10;;;;;;;9.86;100.00;101237.47;12216041;19;20025;-81
2022/11/12 15:52:21;;;;;;;22.70;13.52;;;;;;;9.82;100.00;101236.22;12240297;19;20034;-81
2022/11/12 15:56:42;;;;;;;26.15;15.13;;;;;;;9.73;100.00;101223.72;12203545;19;20035;-81
2022/11/12 16:01:04;;;;;;;28.20;15.35;;;;;;;9.67;100.00;101217.16;12237806;19;20022;-81
2022/11/12 16:05:24;;;;;;;27.85;15.43;;;;;;;9.65;100.00;101207.41;12231920;19;20031;-80
2022/11/12 16:09:45;;;;;;;29.50;14.50;;;;;;;9.65;100.00;101207.41;12210621;19;20014;-81
2022/11/12 16:14:10;;;;;;;27.48;15.55;;;;;;;9.73;100.00;101209.97;12234673;19;20020;-80
2022/11/12 16:18:30;;;;;;;26.63;15.20;;;;;;;9.78;100.00;101201.88;12211540;19;20067;-80
2022/11/12 16:22:51;;;;;;;28.50;15.93;;;;;;;9.79;100.00;101198.94;12225496;19;20369;-79
2022/11/12 16:27:19;;;;;;;30.75;16.30;;;;;;;9.75;100.00;101200.41;12192389;19;20035;-80
2022/11/12 16:31:42;;;;;;;29.23;16.48;;;;;;;9.76;100.00;101201.28;12215992;19;20058;-80
2022/11/12 16:36:09;;;;;;;30.27;16.45;;;;;;;9.77;100.00;101203.81;12195775;19;20024;-80
2022/11/12 16:40:30;;;;;;;32.65;16.52;;;;;;;9.65;100.00;101188.13;12220211;19;20017;-81
2022/11/12 16:44:50;;;;;;;35.22;16.17;;;;;;;9.58;100.00;101196.38;12199471;19;20068;-80
2022/11/12 16:49:12;;;;;;;35.45;17.45;;;;;;;9.60;100.00;101199.75;12233145;19;20022;-80
2022/11/12 16:53:32;;;;;;;29.15;16.48;;;;;;;9.66;100.00;101189.81;12206588;19;20009;-81
2022/11/12 16:57:52;;;;;;;34.58;17.25;;;;;;;9.73;100.00;101193.44;12223542;19;20031;-80
2022/11/12 17:02:15;;;;;;;30.50;15.85;;;;;;;9.71;100.00;101192.78;12224676;19;20014;-80
2022/11/12 17:06:38;;;;;;;33.78;16.48;;;;;;;9.74;100.00;101189.63;12207538;19;20594;-81
2022/11/12 17:11:08;;;;;;;25.92;15.52;;;;;;;9.73;100.00;101182.44;12228952;19;20013;-80
2022/11/12 17:15:28;;;;;;;30.90;16.17;;;;;;;9.76;100.00;101173.75;12205685;19;20583;-80
2022/11/12 17:19:49;;;;;;;36.05;18.02;;;;;;;9.81;100.00;101182.19;12231657;19;20066;-81
2022/11/12 17:24:09;;;;;;;34.97;17.63;;;;;;;9.81;100.00;101183.06;12205514;19;20098;-81
2022/11/12 17:28:30;;;;;;;34.80;16.83;;;;;;;9.82;100.00;101175.66;12229722;19;20527;-81
2022/11/12 17:32:50;;;;;;;29.88;16.05;;;;;;;9.84;100.00;101179.03;12206473;19;20020;-80
2022/11/12 17:37:11;;;;;;;29.60;16.33;;;;;;;9.86;100.00;101173.31;12227363;19;20035;-82
2022/11/12 17:41:31;;;;;;;31.05;16.77;;;;;;;9.88;100.00;101176.72;12208223;19;20017;-81
2022/11/12 17:45:52;;;;;;;50.70;25.58;;;;;;;9.87;100.00;101170.34;12229968;19;20072;-81
2022/11/12 17:50:12;;;;;;;38.60;22.45;;;;;;;9.86;100.00;101165.06;12231583;19;20018;-81
2022/11/12 17:54:34;;;;;;;26.73;15.35;;;;;;;9.79;100.00;101160.41;12225393;19;20026;-82
2022/11/12 17:58:54;;;;;;;25.52;14.88;;;;;;;9.68;100.00;101157.44;12240837;19;20014;-82
2022/11/12 18:03:15;;;;;;;27.90;15.18;;;;;;;9.57;100.00;101165.25;12219111;19;20015;-80
2022/11/12 18:07:38;;;;;;;38.95;21.02;;;;;;;9.53;100.00;101155.72;12238576;19;20014;-81
2022/11/12 18:11:58;;;;;;;33.83;17.27;;;;;;;9.35;100.00;101152.75;12203933;19;20016;-81
2022/11/12 18:16:28;;;;;;;34.55;17.35;;;;;;;9.28;100.00;101168.38;12226391;19;20035;-81
2022/11/12 18:20:49;;;;;;;42.20;20.48;;;;;;;9.23;100.00;101162.66;12204218;19;20024;-81
2022/11/12 18:25:10;;;;;;;51.42;25.08;;;;;;;9.20;100.00;101154.84;12225498;19;20031;-81
2022/11/12 18:29:30;;;;;;;43.53;21.10;;;;;;;9.13;100.00;101163.91;12210747;19;20030;-81
2022/11/12 18:33:51;;;;;;;30.45;15.70;;;;;;;9.11;100.00;101166.00;12220875;19;20036;-82
2022/11/12 18:38:11;;;;;;;32.45;16.10;;;;;;;9.09;100.00;101167.28;12221316;19;20021;-81
2022/11/12 18:42:31;;;;;;;24.42;14.20;;;;;;;9.07;100.00;101166.63;12198102;19;20031;-81
2022/11/12 18:46:53;;;;;;;22.67;12.50;;;;;;;8.94;100.00;101156.44;12218813;19;20110;-81
2022/11/12 18:51:15;;;;;;;23.90;12.63;;;;;;;8.83;100.00;101159.78;12197177;19;20039;-82
2022/11/12 18:55:35;;;;;;;22.63;13.10;;;;;;;8.78;100.00;101145.81;12219753;19;20031;-81
2022/11/12 18:59:57;;;;;;;23.02;12.50;;;;;;;8.74;100.00;101136.28;12189841;19;20036;-81
2022/11/12 19:04:17;;;;;;;22.80;12.52;;;;;;;8.57;100.00;101122.91;12214367;19;20013;-81
2022/11/12 19:08:37;;;;;;;21.75;11.38;;;;;;;8.40;100.00;101121.56;12200458;19;20039;-80
2022/11/12 19:12:59;;;;;;;23.00;11.95;;;;;;;8.27;100.00;101111.31;12239430;19;20040;-80
2022/11/12 19:17:21;;;;;;;22.77;11.70;;;;;;;8.12;100.00;101108.69;12270625;19;20040;-80
2022/11/12 19:21:47;;;;;;;22.77;12.75;;;;;;;7.99;100.00;101103.94;12217628;19;20017;-81
2022/11/12 19:26:11;;;;;;;23.58;12.52;;;;;;;7.81;100.00;101106.38;12239513;19;20026;-82
2022/11/12 19:30:30;;;;;;;24.67;12.60;;;;;;;7.68;100.00;101123.59;12218175;19;20131;-81
2022/11/12 19:34:50;;;;;;;21.30;11.55;;;;;;;7.61;100.00;101122.66;12234999;19;20035;-81
2022/11/12 19:39:11;;;;;;;24.25;13.07;;;;;;;7.56;100.00;101107.88;12212664;19;20026;-81
2022/11/12 19:43:31;;;;;;;22.25;12.45;;;;;;;7.49;100.00;101114.13;12232826;19;20052;-81
2022/11/12 19:47:52;;;;;;;27.98;13.18;;;;;;;7.41;100.00;101103.31;12209761;19;20028;-81
2022/11/12 19:52:13;;;;;;;24.30;12.43;;;;;;;7.40;100.00;101104.34;12229262;19;20044;-81
2022/11/12 19:56:33;;;;;;;24.88;12.85;;;;;;;7.42;100.00;101098.69;12210684;19;20017;-80
2022/11/12 20:00:53;;;;;;;23.83;11.90;;;;;;;7.44;100.00;101102.09;12226993;19;20042;-80
2022/11/12 20:05:14;;;;;;;21.00;11.70;;;;;;;7.47;100.00;101105.28;12226500;19;20017;-81
2022/11/12 20:09:34;;;;;;;23.83;12.13;;;;;;;7.53;100.00;101106.38;12202274;19;20047;-82
2022/11/12 20:13:55;;;;;;;21.10;11.93;;;;;;;7.54;100.00;101106.16;12225664;19;20044;-81
2022/11/12 20:18:15;;;;;;;21.40;11.68;;;;;;;7.58;100.00;101098.38;12203296;19;20818;-81
2022/11/12 20:22:35;;;;;;;23.65;12.02;;;;;;;7.60;100.00;101098.19;12223299;19;20026;-82
2022/11/12 20:26:56;;;;;;;23.02;12.05;;;;;;;7.62;100.00;101091.47;12204897;19;20107;-81
2022/11/12 20:31:19;;;;;;;25.83;13.13;;;;;;;7.59;100.00;101093.75;12224677;19;20027;-81
2022/11/12 20:35:39;;;;;;;24.35;13.23;;;;;;;7.57;100.00;101087.63;12202597;19;20027;-81
2022/11/12 20:40:00;;;;;;;24.02;13.40;;;;;;;7.54;100.00;101088.84;12224248;19;20051;-81
2022/11/12 20:44:20;;;;;;;22.08;11.52;;;;;;;7.51;100.00;101084.63;12216971;19;20035;-81
2022/11/12 20:48:41;;;;;;;21.63;11.68;;;;;;;7.53;100.00;101084.44;12202858;19;20433;-81
2022/11/12 20:53:04;;;;;;;;;;;;;;;7.51;100.00;101087.34;12218508;19;20009;-81